Spooner, Wisconsin
Current Conditions -  °F | °C
As of 11:55 AM on Saturday 20 Dec 2014 (Local Time) from KUBE Reporting Station
Haze Haze  
Wind Chill: 23°   Ceiling: 1100
Heat Index: 30°   Visibility: 5mi
Dew Point: 27°   Wind: 7mph
Humidity: 86%   Direction: 150°SSE
Pressure: 30.13"   Gusts: NA
Location:  45.82°N, 91.89°W
Report Text: KUBE 201755Z AUTO 15006KT 5SM BR OVC011 M01/M03 A3013 RMK AO2
Loading
Personal Weather Stations






























Interactive Weather Map New forecast layout! Learn more

10-Day Weather Forecast

Advertisements
Track Severe Weather on mobile